sensor_id;sensor_type;location;lat;lon;timestamp;P1;durP1;ratioP1;P2;durP2;ratioP2
67571;SDS011;54397;47.506;19.158;2023-10-19T00:01:37;17.17;;;9.48;;
67571;SDS011;54397;47.506;19.158;2023-10-19T00:04:59;11.95;;;8.38;;
67571;SDS011;54397;47.506;19.158;2023-10-19T00:08:21;13.55;;;8.68;;
67571;SDS011;54397;47.506;19.158;2023-10-19T00:11:45;20.58;;;9.15;;
67571;SDS011;54397;47.506;19.158;2023-10-19T00:15:11;16.45;;;8.13;;
67571;SDS011;54397;47.506;19.158;2023-10-19T00:18:33;13.05;;;8.73;;
67571;SDS011;54397;47.506;19.158;2023-10-19T00:21:56;15.40;;;8.15;;
67571;SDS011;54397;47.506;19.158;2023-10-19T00:25:23;14.63;;;8.98;;
67571;SDS011;54397;47.506;19.158;2023-10-19T00:28:46;14.50;;;8.10;;
67571;SDS011;54397;47.506;19.158;2023-10-19T00:32:10;10.23;;;7.35;;
67571;SDS011;54397;47.506;19.158;2023-10-19T00:35:36;14.77;;;8.38;;
67571;SDS011;54397;47.506;19.158;2023-10-19T00:39:03;12.10;;;7.97;;
67571;SDS011;54397;47.506;19.158;2023-10-19T00:42:35;12.95;;;8.00;;
67571;SDS011;54397;47.506;19.158;2023-10-19T00:46:00;11.82;;;8.55;;
67571;SDS011;54397;47.506;19.158;2023-10-19T00:49:36;12.00;;;8.18;;
67571;SDS011;54397;47.506;19.158;2023-10-19T00:52:59;12.88;;;7.95;;
67571;SDS011;54397;47.506;19.158;2023-10-19T00:56:27;11.50;;;8.40;;
67571;SDS011;54397;47.506;19.158;2023-10-19T00:59:53;15.95;;;8.18;;
67571;SDS011;54397;47.506;19.158;2023-10-19T01:03:15;16.08;;;8.73;;
67571;SDS011;54397;47.506;19.158;2023-10-19T01:06:38;12.70;;;8.65;;
67571;SDS011;54397;47.506;19.158;2023-10-19T01:10:01;14.95;;;8.75;;
67571;SDS011;54397;47.506;19.158;2023-10-19T01:13:30;13.18;;;7.95;;
67571;SDS011;54397;47.506;19.158;2023-10-19T01:16:58;13.55;;;9.00;;
67571;SDS011;54397;47.506;19.158;2023-10-19T01:20:22;13.65;;;9.07;;
67571;SDS011;54397;47.506;19.158;2023-10-19T01:23:55;12.82;;;7.82;;
67571;SDS011;54397;47.506;19.158;2023-10-19T01:27:19;12.07;;;8.40;;
67571;SDS011;54397;47.506;19.158;2023-10-19T01:30:41;12.40;;;9.23;;
67571;SDS011;54397;47.506;19.158;2023-10-19T01:34:03;14.23;;;9.18;;
67571;SDS011;54397;47.506;19.158;2023-10-19T01:37:28;11.98;;;8.38;;
67571;SDS011;54397;47.506;19.158;2023-10-19T01:40:50;12.35;;;8.50;;
67571;SDS011;54397;47.506;19.158;2023-10-19T01:44:12;12.75;;;9.13;;
67571;SDS011;54397;47.506;19.158;2023-10-19T01:47:39;14.85;;;9.55;;
67571;SDS011;54397;47.506;19.158;2023-10-19T01:51:02;15.45;;;8.88;;
67571;SDS011;54397;47.506;19.158;2023-10-19T01:54:28;13.95;;;9.10;;
67571;SDS011;54397;47.506;19.158;2023-10-19T01:57:53;14.73;;;9.15;;
67571;SDS011;54397;47.506;19.158;2023-10-19T02:01:15;17.67;;;10.15;;
67571;SDS011;54397;47.506;19.158;2023-10-19T02:04:40;11.05;;;8.98;;
67571;SDS011;54397;47.506;19.158;2023-10-19T02:08:07;13.55;;;10.35;;
67571;SDS011;54397;47.506;19.158;2023-10-19T02:11:31;14.02;;;10.13;;
67571;SDS011;54397;47.506;19.158;2023-10-19T02:14:53;15.18;;;11.20;;
67571;SDS011;54397;47.506;19.158;2023-10-19T02:18:15;18.85;;;11.25;;
67571;SDS011;54397;47.506;19.158;2023-10-19T02:21:39;18.20;;;11.30;;
67571;SDS011;54397;47.506;19.158;2023-10-19T02:25:01;15.68;;;11.32;;
67571;SDS011;54397;47.506;19.158;2023-10-19T02:28:29;19.60;;;11.70;;
67571;SDS011;54397;47.506;19.158;2023-10-19T02:31:53;18.23;;;11.73;;
67571;SDS011;54397;47.506;19.158;2023-10-19T02:35:17;18.35;;;12.65;;
67571;SDS011;54397;47.506;19.158;2023-10-19T02:38:44;15.38;;;11.90;;
67571;SDS011;54397;47.506;19.158;2023-10-19T02:42:12;16.33;;;12.10;;
67571;SDS011;54397;47.506;19.158;2023-10-19T02:45:34;19.45;;;13.15;;
67571;SDS011;54397;47.506;19.158;2023-10-19T02:48:56;18.05;;;13.80;;
67571;SDS011;54397;47.506;19.158;2023-10-19T02:52:20;16.80;;;12.98;;
67571;SDS011;54397;47.506;19.158;2023-10-19T02:55:44;19.17;;;13.50;;
67571;SDS011;54397;47.506;19.158;2023-10-19T02:59:06;19.20;;;14.27;;
67571;SDS011;54397;47.506;19.158;2023-10-19T03:02:30;26.80;;;19.85;;
67571;SDS011;54397;47.506;19.158;2023-10-19T03:05:52;21.92;;;14.40;;
67571;SDS011;54397;47.506;19.158;2023-10-19T03:09:16;20.92;;;15.48;;
67571;SDS011;54397;47.506;19.158;2023-10-19T03:12:45;27.58;;;16.52;;
67571;SDS011;54397;47.506;19.158;2023-10-19T03:16:10;22.02;;;17.25;;
67571;SDS011;54397;47.506;19.158;2023-10-19T03:19:32;25.75;;;16.80;;
67571;SDS011;54397;47.506;19.158;2023-10-19T03:22:56;23.42;;;17.40;;
67571;SDS011;54397;47.506;19.158;2023-10-19T03:26:22;23.38;;;16.67;;
67571;SDS011;54397;47.506;19.158;2023-10-19T03:29:58;28.33;;;17.40;;
67571;SDS011;54397;47.506;19.158;2023-10-19T03:33:22;24.90;;;17.15;;
67571;SDS011;54397;47.506;19.158;2023-10-19T03:36:50;22.52;;;16.45;;
67571;SDS011;54397;47.506;19.158;2023-10-19T03:40:16;23.23;;;16.75;;
67571;SDS011;54397;47.506;19.158;2023-10-19T03:43:47;20.77;;;16.23;;
67571;SDS011;54397;47.506;19.158;2023-10-19T03:47:10;23.77;;;17.10;;
67571;SDS011;54397;47.506;19.158;2023-10-19T03:50:40;27.13;;;16.80;;
67571;SDS011;54397;47.506;19.158;2023-10-19T03:54:01;28.02;;;20.60;;
67571;SDS011;54397;47.506;19.158;2023-10-19T03:57:28;21.40;;;16.10;;
67571;SDS011;54397;47.506;19.158;2023-10-19T04:00:56;22.48;;;16.67;;
67571;SDS011;54397;47.506;19.158;2023-10-19T04:04:26;24.30;;;15.63;;
67571;SDS011;54397;47.506;19.158;2023-10-19T04:07:50;20.55;;;15.73;;
67571;SDS011;54397;47.506;19.158;2023-10-19T04:11:38;20.90;;;15.40;;
67571;SDS011;54397;47.506;19.158;2023-10-19T04:15:10;17.05;;;14.30;;
67571;SDS011;54397;47.506;19.158;2023-10-19T04:22:07;22.58;;;14.82;;
67571;SDS011;54397;47.506;19.158;2023-10-19T04:25:32;29.27;;;20.83;;
67571;SDS011;54397;47.506;19.158;2023-10-19T04:28:54;26.83;;;19.58;;
67571;SDS011;54397;47.506;19.158;2023-10-19T04:32:16;22.88;;;15.65;;
67571;SDS011;54397;47.506;19.158;2023-10-19T04:35:47;24.45;;;16.30;;
67571;SDS011;54397;47.506;19.158;2023-10-19T04:39:15;20.30;;;15.48;;
67571;SDS011;54397;47.506;19.158;2023-10-19T04:42:40;25.77;;;15.98;;
67571;SDS011;54397;47.506;19.158;2023-10-19T04:46:09;20.75;;;15.70;;
67571;SDS011;54397;47.506;19.158;2023-10-19T04:49:34;19.97;;;15.10;;
67571;SDS011;54397;47.506;19.158;2023-10-19T04:52:56;22.17;;;16.07;;
67571;SDS011;54397;47.506;19.158;2023-10-19T04:56:18;22.40;;;16.25;;
67571;SDS011;54397;47.506;19.158;2023-10-19T04:59:42;21.77;;;15.15;;
67571;SDS011;54397;47.506;19.158;2023-10-19T05:03:06;19.63;;;14.77;;
67571;SDS011;54397;47.506;19.158;2023-10-19T05:06:28;19.85;;;14.82;;
67571;SDS011;54397;47.506;19.158;2023-10-19T05:09:52;22.58;;;15.40;;
67571;SDS011;54397;47.506;19.158;2023-10-19T05:13:15;23.52;;;15.35;;
67571;SDS011;54397;47.506;19.158;2023-10-19T05:16:37;23.60;;;16.38;;
67571;SDS011;54397;47.506;19.158;2023-10-19T05:19:58;22.23;;;16.43;;
67571;SDS011;54397;47.506;19.158;2023-10-19T05:23:23;24.07;;;15.43;;
67571;SDS011;54397;47.506;19.158;2023-10-19T05:26:46;24.48;;;15.60;;
67571;SDS011;54397;47.506;19.158;2023-10-19T05:30:08;21.03;;;15.63;;
67571;SDS011;54397;47.506;19.158;2023-10-19T05:33:32;23.90;;;15.73;;
67571;SDS011;54397;47.506;19.158;2023-10-19T05:36:54;21.42;;;15.20;;
67571;SDS011;54397;47.506;19.158;2023-10-19T05:40:20;20.83;;;15.05;;
67571;SDS011;54397;47.506;19.158;2023-10-19T05:43:45;20.95;;;15.05;;
67571;SDS011;54397;47.506;19.158;2023-10-19T05:47:08;19.13;;;14.48;;
67571;SDS011;54397;47.506;19.158;2023-10-19T05:50:33;21.40;;;15.57;;
67571;SDS011;54397;47.506;19.158;2023-10-19T05:53:57;21.95;;;15.73;;
67571;SDS011;54397;47.506;19.158;2023-10-19T05:57:23;20.88;;;15.40;;
67571;SDS011;54397;47.506;19.158;2023-10-19T06:00:45;18.92;;;14.55;;
67571;SDS011;54397;47.506;19.158;2023-10-19T06:04:10;21.02;;;15.40;;
67571;SDS011;54397;47.506;19.158;2023-10-19T06:07:32;18.27;;;14.45;;
67571;SDS011;54397;47.506;19.158;2023-10-19T06:10:54;20.90;;;14.82;;
67571;SDS011;54397;47.506;19.158;2023-10-19T06:14:16;20.17;;;14.63;;
67571;SDS011;54397;47.506;19.158;2023-10-19T06:17:38;18.52;;;14.75;;
67571;SDS011;54397;47.506;19.158;2023-10-19T06:21:01;20.17;;;14.75;;
67571;SDS011;54397;47.506;19.158;2023-10-19T06:24:25;21.27;;;15.32;;
67571;SDS011;54397;47.506;19.158;2023-10-19T06:27:47;21.58;;;14.95;;
67571;SDS011;54397;47.506;19.158;2023-10-19T06:31:12;18.80;;;14.18;;
67571;SDS011;54397;47.506;19.158;2023-10-19T06:34:36;20.27;;;14.43;;
67571;SDS011;54397;47.506;19.158;2023-10-19T06:38:01;19.70;;;14.15;;
67571;SDS011;54397;47.506;19.158;2023-10-19T06:41:25;18.45;;;13.90;;
67571;SDS011;54397;47.506;19.158;2023-10-19T06:44:47;17.80;;;13.05;;
67571;SDS011;54397;47.506;19.158;2023-10-19T06:48:11;17.35;;;13.32;;
67571;SDS011;54397;47.506;19.158;2023-10-19T06:51:37;17.90;;;13.80;;
67571;SDS011;54397;47.506;19.158;2023-10-19T06:55:02;17.27;;;13.25;;
67571;SDS011;54397;47.506;19.158;2023-10-19T06:58:25;18.40;;;14.07;;
67571;SDS011;54397;47.506;19.158;2023-10-19T07:01:47;17.80;;;13.57;;
67571;SDS011;54397;47.506;19.158;2023-10-19T07:05:15;18.02;;;13.30;;
67571;SDS011;54397;47.506;19.158;2023-10-19T07:08:42;17.30;;;13.60;;
67571;SDS011;54397;47.506;19.158;2023-10-19T07:12:06;19.17;;;13.30;;
67571;SDS011;54397;47.506;19.158;2023-10-19T07:15:29;18.08;;;13.05;;
67571;SDS011;54397;47.506;19.158;2023-10-19T07:18:51;18.35;;;13.45;;
67571;SDS011;54397;47.506;19.158;2023-10-19T07:22:14;16.60;;;12.63;;
67571;SDS011;54397;47.506;19.158;2023-10-19T07:25:38;18.23;;;14.02;;
67571;SDS011;54397;47.506;19.158;2023-10-19T07:29:05;17.90;;;13.45;;
67571;SDS011;54397;47.506;19.158;2023-10-19T07:32:29;20.63;;;13.65;;
67571;SDS011;54397;47.506;19.158;2023-10-19T07:35:54;20.10;;;13.63;;
67571;SDS011;54397;47.506;19.158;2023-10-19T07:39:16;15.85;;;12.82;;
67571;SDS011;54397;47.506;19.158;2023-10-19T07:42:40;19.65;;;13.68;;
67571;SDS011;54397;47.506;19.158;2023-10-19T07:46:06;16.42;;;12.98;;
67571;SDS011;54397;47.506;19.158;2023-10-19T07:49:31;15.80;;;12.98;;
67571;SDS011;54397;47.506;19.158;2023-10-19T07:52:53;17.20;;;13.10;;
67571;SDS011;54397;47.506;19.158;2023-10-19T07:56:17;17.27;;;12.90;;
67571;SDS011;54397;47.506;19.158;2023-10-19T07:59:40;22.48;;;13.48;;
67571;SDS011;54397;47.506;19.158;2023-10-19T08:03:02;17.88;;;13.13;;
67571;SDS011;54397;47.506;19.158;2023-10-19T08:06:26;18.60;;;13.38;;
67571;SDS011;54397;47.506;19.158;2023-10-19T08:09:52;17.15;;;13.40;;
67571;SDS011;54397;47.506;19.158;2023-10-19T08:13:14;20.10;;;14.38;;
67571;SDS011;54397;47.506;19.158;2023-10-19T08:16:36;20.55;;;14.50;;
67571;SDS011;54397;47.506;19.158;2023-10-19T08:19:58;22.48;;;14.52;;
67571;SDS011;54397;47.506;19.158;2023-10-19T08:23:19;18.92;;;14.15;;
67571;SDS011;54397;47.506;19.158;2023-10-19T08:26:45;17.77;;;13.82;;
67571;SDS011;54397;47.506;19.158;2023-10-19T08:30:10;22.08;;;13.95;;
67571;SDS011;54397;47.506;19.158;2023-10-19T08:33:34;20.25;;;14.18;;
67571;SDS011;54397;47.506;19.158;2023-10-19T08:37:00;18.05;;;13.98;;
67571;SDS011;54397;47.506;19.158;2023-10-19T08:40:26;22.20;;;14.13;;
67571;SDS011;54397;47.506;19.158;2023-10-19T08:43:50;16.95;;;13.75;;
67571;SDS011;54397;47.506;19.158;2023-10-19T08:47:12;20.08;;;14.02;;
67571;SDS011;54397;47.506;19.158;2023-10-19T08:50:34;18.08;;;14.93;;
67571;SDS011;54397;47.506;19.158;2023-10-19T08:53:58;19.17;;;14.23;;
67571;SDS011;54397;47.506;19.158;2023-10-19T08:57:23;20.85;;;14.98;;
67571;SDS011;54397;47.506;19.158;2023-10-19T09:00:50;19.98;;;15.50;;
67571;SDS011;54397;47.506;19.158;2023-10-19T09:04:19;21.45;;;13.90;;
67571;SDS011;54397;47.506;19.158;2023-10-19T09:07:41;18.75;;;14.68;;
67571;SDS011;54397;47.506;19.158;2023-10-19T09:11:05;23.85;;;15.45;;
67571;SDS011;54397;47.506;19.158;2023-10-19T09:14:37;51.75;;;35.80;;
67571;SDS011;54397;47.506;19.158;2023-10-19T09:18:15;26.83;;;19.73;;
67571;SDS011;54397;47.506;19.158;2023-10-19T09:21:37;25.75;;;17.92;;
67571;SDS011;54397;47.506;19.158;2023-10-19T09:25:01;20.50;;;14.60;;
67571;SDS011;54397;47.506;19.158;2023-10-19T09:28:28;18.15;;;13.75;;
67571;SDS011;54397;47.506;19.158;2023-10-19T09:31:49;18.88;;;14.27;;
67571;SDS011;54397;47.506;19.158;2023-10-19T09:35:18;19.95;;;13.52;;
67571;SDS011;54397;47.506;19.158;2023-10-19T09:38:47;18.40;;;12.93;;
67571;SDS011;54397;47.506;19.158;2023-10-19T09:42:10;19.80;;;13.27;;
67571;SDS011;54397;47.506;19.158;2023-10-19T09:45:39;19.67;;;13.50;;
67571;SDS011;54397;47.506;19.158;2023-10-19T09:49:04;21.20;;;13.90;;
67571;SDS011;54397;47.506;19.158;2023-10-19T09:52:31;19.40;;;14.23;;
67571;SDS011;54397;47.506;19.158;2023-10-19T09:55:57;18.52;;;13.13;;
67571;SDS011;54397;47.506;19.158;2023-10-19T09:59:36;20.15;;;13.90;;
67571;SDS011;54397;47.506;19.158;2023-10-19T10:03:01;18.65;;;13.35;;
67571;SDS011;54397;47.506;19.158;2023-10-19T10:06:28;20.85;;;13.13;;
67571;SDS011;54397;47.506;19.158;2023-10-19T10:09:50;19.38;;;13.63;;
67571;SDS011;54397;47.506;19.158;2023-10-19T10:16:47;20.42;;;13.88;;
67571;SDS011;54397;47.506;19.158;2023-10-19T10:20:32;18.27;;;13.98;;
67571;SDS011;54397;47.506;19.158;2023-10-19T10:23:58;22.33;;;17.30;;
67571;SDS011;54397;47.506;19.158;2023-10-19T10:27:21;21.17;;;15.80;;
67571;SDS011;54397;47.506;19.158;2023-10-19T10:34:42;18.50;;;14.05;;
67571;SDS011;54397;47.506;19.158;2023-10-19T10:38:08;18.40;;;13.48;;
67571;SDS011;54397;47.506;19.158;2023-10-19T10:41:38;16.85;;;13.10;;
67571;SDS011;54397;47.506;19.158;2023-10-19T10:45:03;15.65;;;12.73;;
67571;SDS011;54397;47.506;19.158;2023-10-19T10:48:26;22.02;;;14.02;;
67571;SDS011;54397;47.506;19.158;2023-10-19T10:51:48;20.17;;;14.70;;
67571;SDS011;54397;47.506;19.158;2023-10-19T10:55:15;19.77;;;14.38;;
67571;SDS011;54397;47.506;19.158;2023-10-19T10:58:37;17.88;;;13.18;;
67571;SDS011;54397;47.506;19.158;2023-10-19T11:01:59;18.30;;;15.10;;
67571;SDS011;54397;47.506;19.158;2023-10-19T11:05:20;17.70;;;15.23;;
67571;SDS011;54397;47.506;19.158;2023-10-19T11:08:43;17.38;;;14.77;;
67571;SDS011;54397;47.506;19.158;2023-10-19T11:12:10;19.70;;;15.07;;
67571;SDS011;54397;47.506;19.158;2023-10-19T11:15:38;19.27;;;14.38;;
67571;SDS011;54397;47.506;19.158;2023-10-19T11:19:03;19.45;;;14.60;;
67571;SDS011;54397;47.506;19.158;2023-10-19T11:22:26;20.70;;;14.70;;
67571;SDS011;54397;47.506;19.158;2023-10-19T11:25:57;17.65;;;14.57;;
67571;SDS011;54397;47.506;19.158;2023-10-19T11:29:23;18.52;;;15.13;;
67571;SDS011;54397;47.506;19.158;2023-10-19T11:32:46;17.02;;;14.60;;
67571;SDS011;54397;47.506;19.158;2023-10-19T11:36:08;19.10;;;15.00;;
67571;SDS011;54397;47.506;19.158;2023-10-19T11:39:29;19.20;;;15.05;;
67571;SDS011;54397;47.506;19.158;2023-10-19T11:42:52;19.75;;;14.70;;
67571;SDS011;54397;47.506;19.158;2023-10-19T11:46:17;18.20;;;14.07;;
67571;SDS011;54397;47.506;19.158;2023-10-19T11:49:39;16.90;;;14.02;;
67571;SDS011;54397;47.506;19.158;2023-10-19T11:53:01;22.02;;;15.77;;
67571;SDS011;54397;47.506;19.158;2023-10-19T11:56:24;21.30;;;17.52;;
67571;SDS011;54397;47.506;19.158;2023-10-19T11:59:51;21.00;;;15.90;;
67571;SDS011;54397;47.506;19.158;2023-10-19T12:03:17;20.33;;;16.63;;
67571;SDS011;54397;47.506;19.158;2023-10-19T12:06:40;16.75;;;14.98;;
67571;SDS011;54397;47.506;19.158;2023-10-19T12:10:04;20.63;;;15.38;;
67571;SDS011;54397;47.506;19.158;2023-10-19T12:13:29;17.65;;;13.70;;
67571;SDS011;54397;47.506;19.158;2023-10-19T12:16:52;19.45;;;14.57;;
67571;SDS011;54397;47.506;19.158;2023-10-19T12:20:17;20.27;;;15.55;;
67571;SDS011;54397;47.506;19.158;2023-10-19T12:23:45;20.80;;;15.27;;
67571;SDS011;54397;47.506;19.158;2023-10-19T12:27:13;19.05;;;15.05;;
67571;SDS011;54397;47.506;19.158;2023-10-19T12:30:36;20.73;;;15.27;;
67571;SDS011;54397;47.506;19.158;2023-10-19T12:34:00;15.88;;;12.93;;
67571;SDS011;54397;47.506;19.158;2023-10-19T12:37:22;22.67;;;14.93;;
67571;SDS011;54397;47.506;19.158;2023-10-19T12:40:47;19.70;;;15.30;;
67571;SDS011;54397;47.506;19.158;2023-10-19T12:44:14;17.65;;;14.80;;
67571;SDS011;54397;47.506;19.158;2023-10-19T12:47:39;16.88;;;14.95;;
67571;SDS011;54397;47.506;19.158;2023-10-19T12:51:01;22.13;;;16.27;;
67571;SDS011;54397;47.506;19.158;2023-10-19T12:54:23;18.08;;;16.00;;
67571;SDS011;54397;47.506;19.158;2023-10-19T12:57:45;21.00;;;16.40;;
67571;SDS011;54397;47.506;19.158;2023-10-19T13:01:12;19.63;;;16.60;;
67571;SDS011;54397;47.506;19.158;2023-10-19T13:04:38;19.90;;;15.38;;
67571;SDS011;54397;47.506;19.158;2023-10-19T13:08:08;21.00;;;15.88;;
67571;SDS011;54397;47.506;19.158;2023-10-19T13:11:34;18.27;;;15.23;;
67571;SDS011;54397;47.506;19.158;2023-10-19T13:15:05;19.50;;;15.00;;
67571;SDS011;54397;47.506;19.158;2023-10-19T13:18:35;19.40;;;15.77;;
67571;SDS011;54397;47.506;19.158;2023-10-19T13:21:57;24.42;;;18.35;;
67571;SDS011;54397;47.506;19.158;2023-10-19T13:25:26;17.67;;;15.23;;
67571;SDS011;54397;47.506;19.158;2023-10-19T13:29:03;23.23;;;16.58;;
67571;SDS011;54397;47.506;19.158;2023-10-19T13:32:28;22.73;;;15.57;;
67571;SDS011;54397;47.506;19.158;2023-10-19T13:35:50;16.67;;;13.60;;
67571;SDS011;54397;47.506;19.158;2023-10-19T13:39:12;17.98;;;14.38;;
67571;SDS011;54397;47.506;19.158;2023-10-19T13:42:40;19.73;;;14.65;;
67571;SDS011;54397;47.506;19.158;2023-10-19T13:49:32;19.63;;;15.90;;
67571;SDS011;54397;47.506;19.158;2023-10-19T13:52:56;18.65;;;14.93;;
67571;SDS011;54397;47.506;19.158;2023-10-19T13:56:21;18.65;;;14.90;;
67571;SDS011;54397;47.506;19.158;2023-10-19T13:59:43;18.33;;;15.85;;
67571;SDS011;54397;47.506;19.158;2023-10-19T14:03:08;23.63;;;18.30;;
67571;SDS011;54397;47.506;19.158;2023-10-19T14:06:34;26.67;;;18.63;;
67571;SDS011;54397;47.506;19.158;2023-10-19T14:09:58;24.33;;;17.50;;
67571;SDS011;54397;47.506;19.158;2023-10-19T14:13:23;24.90;;;19.05;;
67571;SDS011;54397;47.506;19.158;2023-10-19T14:16:49;23.10;;;19.88;;
67571;SDS011;54397;47.506;19.158;2023-10-19T14:20:13;27.52;;;20.33;;
67571;SDS011;54397;47.506;19.158;2023-10-19T14:23:36;25.95;;;19.02;;
67571;SDS011;54397;47.506;19.158;2023-10-19T14:27:03;26.05;;;19.23;;
67571;SDS011;54397;47.506;19.158;2023-10-19T14:30:27;23.70;;;19.55;;
67571;SDS011;54397;47.506;19.158;2023-10-19T14:33:49;27.67;;;20.33;;
67571;SDS011;54397;47.506;19.158;2023-10-19T14:37:12;25.92;;;20.80;;
67571;SDS011;54397;47.506;19.158;2023-10-19T14:40:33;41.83;;;19.40;;
67571;SDS011;54397;47.506;19.158;2023-10-19T14:43:57;24.75;;;18.83;;
67571;SDS011;54397;47.506;19.158;2023-10-19T14:47:21;23.02;;;17.13;;
67571;SDS011;54397;47.506;19.158;2023-10-19T14:50:47;25.20;;;18.40;;
67571;SDS011;54397;47.506;19.158;2023-10-19T14:54:11;29.23;;;17.23;;
67571;SDS011;54397;47.506;19.158;2023-10-19T14:57:33;36.70;;;24.73;;
67571;SDS011;54397;47.506;19.158;2023-10-19T15:00:55;42.80;;;31.48;;
67571;SDS011;54397;47.506;19.158;2023-10-19T15:04:19;35.10;;;22.67;;
67571;SDS011;54397;47.506;19.158;2023-10-19T15:07:46;30.40;;;17.60;;
67571;SDS011;54397;47.506;19.158;2023-10-19T15:11:19;25.13;;;18.83;;
67571;SDS011;54397;47.506;19.158;2023-10-19T15:14:43;26.02;;;18.52;;
67571;SDS011;54397;47.506;19.158;2023-10-19T15:18:05;25.20;;;19.23;;
67571;SDS011;54397;47.506;19.158;2023-10-19T15:21:29;26.55;;;19.77;;
67571;SDS011;54397;47.506;19.158;2023-10-19T15:24:51;28.88;;;20.75;;
67571;SDS011;54397;47.506;19.158;2023-10-19T15:28:15;28.95;;;20.85;;
67571;SDS011;54397;47.506;19.158;2023-10-19T15:31:37;28.95;;;21.17;;
67571;SDS011;54397;47.506;19.158;2023-10-19T15:35:01;31.70;;;22.05;;
67571;SDS011;54397;47.506;19.158;2023-10-19T15:38:23;37.85;;;23.52;;
67571;SDS011;54397;47.506;19.158;2023-10-19T15:41:45;32.80;;;23.05;;
67571;SDS011;54397;47.506;19.158;2023-10-19T15:45:15;30.73;;;22.13;;
67571;SDS011;54397;47.506;19.158;2023-10-19T15:48:45;36.08;;;23.77;;
67571;SDS011;54397;47.506;19.158;2023-10-19T15:52:07;35.33;;;24.30;;
67571;SDS011;54397;47.506;19.158;2023-10-19T15:55:29;80.00;;;50.08;;
67571;SDS011;54397;47.506;19.158;2023-10-19T15:58:54;49.15;;;34.20;;
67571;SDS011;54397;47.506;19.158;2023-10-19T16:02:18;33.55;;;24.45;;
67571;SDS011;54397;47.506;19.158;2023-10-19T16:05:39;36.58;;;23.73;;
67571;SDS011;54397;47.506;19.158;2023-10-19T16:09:01;39.25;;;27.10;;
67571;SDS011;54397;47.506;19.158;2023-10-19T16:12:28;36.25;;;25.90;;
67571;SDS011;54397;47.506;19.158;2023-10-19T16:15:52;33.15;;;23.40;;
67571;SDS011;54397;47.506;19.158;2023-10-19T16:19:14;33.35;;;23.80;;
67571;SDS011;54397;47.506;19.158;2023-10-19T16:22:36;39.38;;;25.85;;
67571;SDS011;54397;47.506;19.158;2023-10-19T16:25:58;35.10;;;25.20;;
67571;SDS011;54397;47.506;19.158;2023-10-19T16:29:25;36.30;;;24.33;;
67571;SDS011;54397;47.506;19.158;2023-10-19T16:32:49;37.95;;;25.50;;
67571;SDS011;54397;47.506;19.158;2023-10-19T16:36:13;45.45;;;26.65;;
67571;SDS011;54397;47.506;19.158;2023-10-19T16:39:37;59.28;;;40.90;;
67571;SDS011;54397;47.506;19.158;2023-10-19T16:43:00;42.00;;;27.52;;
67571;SDS011;54397;47.506;19.158;2023-10-19T16:46:23;37.72;;;25.27;;
67571;SDS011;54397;47.506;19.158;2023-10-19T16:49:44;41.40;;;26.63;;
67571;SDS011;54397;47.506;19.158;2023-10-19T16:53:06;38.88;;;24.92;;
67571;SDS011;54397;47.506;19.158;2023-10-19T16:56:28;39.95;;;24.38;;
67571;SDS011;54397;47.506;19.158;2023-10-19T16:59:54;41.22;;;24.35;;
67571;SDS011;54397;47.506;19.158;2023-10-19T17:03:18;35.38;;;23.20;;
67571;SDS011;54397;47.506;19.158;2023-10-19T17:06:40;36.42;;;24.95;;
67571;SDS011;54397;47.506;19.158;2023-10-19T17:10:03;40.28;;;23.65;;
67571;SDS011;54397;47.506;19.158;2023-10-19T17:13:29;37.90;;;23.52;;
67571;SDS011;54397;47.506;19.158;2023-10-19T17:16:52;34.90;;;24.65;;
67571;SDS011;54397;47.506;19.158;2023-10-19T17:20:17;40.47;;;27.17;;
67571;SDS011;54397;47.506;19.158;2023-10-19T17:23:39;41.97;;;27.80;;
67571;SDS011;54397;47.506;19.158;2023-10-19T17:27:02;37.33;;;25.45;;
67571;SDS011;54397;47.506;19.158;2023-10-19T17:30:28;35.28;;;23.80;;
67571;SDS011;54397;47.506;19.158;2023-10-19T17:33:53;38.38;;;25.05;;
67571;SDS011;54397;47.506;19.158;2023-10-19T17:37:17;40.05;;;24.65;;
67571;SDS011;54397;47.506;19.158;2023-10-19T17:40:38;40.10;;;25.00;;
67571;SDS011;54397;47.506;19.158;2023-10-19T17:44:00;37.38;;;24.45;;
67571;SDS011;54397;47.506;19.158;2023-10-19T17:47:22;36.78;;;24.15;;
67571;SDS011;54397;47.506;19.158;2023-10-19T17:50:44;31.98;;;22.75;;
67571;SDS011;54397;47.506;19.158;2023-10-19T17:54:06;41.70;;;24.80;;
67571;SDS011;54397;47.506;19.158;2023-10-19T17:57:31;33.53;;;23.58;;
67571;SDS011;54397;47.506;19.158;2023-10-19T18:00:54;36.47;;;24.08;;
67571;SDS011;54397;47.506;19.158;2023-10-19T18:04:16;34.95;;;24.42;;
67571;SDS011;54397;47.506;19.158;2023-10-19T18:07:39;35.22;;;23.80;;
67571;SDS011;54397;47.506;19.158;2023-10-19T18:11:01;32.70;;;23.17;;
67571;SDS011;54397;47.506;19.158;2023-10-19T18:14:23;37.40;;;23.55;;
67571;SDS011;54397;47.506;19.158;2023-10-19T18:17:47;46.70;;;27.05;;
67571;SDS011;54397;47.506;19.158;2023-10-19T18:21:12;39.72;;;26.10;;
67571;SDS011;54397;47.506;19.158;2023-10-19T18:24:37;36.20;;;26.45;;
67571;SDS011;54397;47.506;19.158;2023-10-19T18:28:01;40.15;;;25.63;;
67571;SDS011;54397;47.506;19.158;2023-10-19T18:31:24;37.15;;;25.52;;
67571;SDS011;54397;47.506;19.158;2023-10-19T18:34:46;33.42;;;23.83;;
67571;SDS011;54397;47.506;19.158;2023-10-19T18:38:08;35.20;;;22.70;;
67571;SDS011;54397;47.506;19.158;2023-10-19T18:41:32;41.00;;;24.25;;
67571;SDS011;54397;47.506;19.158;2023-10-19T18:44:54;32.75;;;23.27;;
67571;SDS011;54397;47.506;19.158;2023-10-19T18:48:16;34.22;;;22.95;;
67571;SDS011;54397;47.506;19.158;2023-10-19T18:51:38;34.50;;;22.85;;
67571;SDS011;54397;47.506;19.158;2023-10-19T18:55:09;35.38;;;23.45;;
67571;SDS011;54397;47.506;19.158;2023-10-19T18:58:35;34.45;;;23.95;;
67571;SDS011;54397;47.506;19.158;2023-10-19T19:01:58;39.15;;;25.23;;
67571;SDS011;54397;47.506;19.158;2023-10-19T19:05:20;36.50;;;23.45;;
67571;SDS011;54397;47.506;19.158;2023-10-19T19:08:43;38.20;;;23.33;;
67571;SDS011;54397;47.506;19.158;2023-10-19T19:12:05;34.22;;;22.90;;
67571;SDS011;54397;47.506;19.158;2023-10-19T19:15:32;35.25;;;23.90;;
67571;SDS011;54397;47.506;19.158;2023-10-19T19:18:57;40.55;;;23.60;;
67571;SDS011;54397;47.506;19.158;2023-10-19T19:22:18;34.72;;;22.95;;
67571;SDS011;54397;47.506;19.158;2023-10-19T19:25:43;34.70;;;22.73;;
67571;SDS011;54397;47.506;19.158;2023-10-19T19:29:06;38.72;;;23.83;;
67571;SDS011;54397;47.506;19.158;2023-10-19T19:32:27;37.22;;;22.92;;
67571;SDS011;54397;47.506;19.158;2023-10-19T19:35:49;34.33;;;22.40;;
67571;SDS011;54397;47.506;19.158;2023-10-19T19:39:11;40.08;;;22.45;;
67571;SDS011;54397;47.506;19.158;2023-10-19T19:42:42;43.15;;;26.75;;
67571;SDS011;54397;47.506;19.158;2023-10-19T19:46:06;33.22;;;22.25;;
67571;SDS011;54397;47.506;19.158;2023-10-19T19:49:28;34.05;;;21.63;;
67571;SDS011;54397;47.506;19.158;2023-10-19T19:52:50;34.63;;;21.48;;
67571;SDS011;54397;47.506;19.158;2023-10-19T19:56:13;34.38;;;22.33;;